createdAt,value
2022-08-17T00:00:43.215Z,100.00
2022-08-17T00:03:18.377Z,100.00
2022-08-17T00:05:59.911Z,100.00
2022-08-17T00:08:35.451Z,100.00
2022-08-17T00:11:16.631Z,100.00
2022-08-17T00:13:49.294Z,100.00
2022-08-17T00:16:22.560Z,100.00
2022-08-17T00:19:14.031Z,100.00
2022-08-17T00:22:30.963Z,100.00
2022-08-17T00:24:35.103Z,100.00
2022-08-17T00:27:03.924Z,100.00
2022-08-17T00:29:32.269Z,100.00
2022-08-17T00:33:15.195Z,100.00
2022-08-17T00:34:54.551Z,100.00
2022-08-17T00:37:22.845Z,100.00
2022-08-17T00:39:51.189Z,100.00
2022-08-17T00:42:20.168Z,100.00
2022-08-17T00:44:48.490Z,100.00
2022-08-17T00:47:16.802Z,100.00
2022-08-17T00:49:45.012Z,100.00
2022-08-17T00:52:20.654Z,100.00
2022-08-17T00:54:54.161Z,100.00
2022-08-17T00:57:30.831Z,100.00
2022-08-17T01:00:09.294Z,100.00
2022-08-17T01:02:43.319Z,100.00
2022-08-17T01:05:19.041Z,100.00
2022-08-17T01:07:50.900Z,100.00
2022-08-17T01:11:00.476Z,100.00
2022-08-17T01:13:14.144Z,100.00
2022-08-17T01:15:49.106Z,100.00
2022-08-17T01:18:17.618Z,100.00
2022-08-17T01:20:50.686Z,100.00
2022-08-17T01:23:22.382Z,100.00
2022-08-17T01:25:53.399Z,100.00
2022-08-17T01:28:33.650Z,100.00
2022-08-17T01:31:12.659Z,100.00
2022-08-17T01:33:41.038Z,100.00
2022-08-17T01:36:09.682Z,100.00
2022-08-17T01:38:39.366Z,100.00
2022-08-17T01:41:12.631Z,100.00
2022-08-17T01:43:49.178Z,100.00
2022-08-17T01:46:27.279Z,100.00
2022-08-17T01:48:57.736Z,100.00
2022-08-17T01:51:33.021Z,100.00
2022-08-17T01:54:11.791Z,100.00
2022-08-17T01:56:43.469Z,100.00
2022-08-17T01:59:17.271Z,100.00
2022-08-17T02:01:46.559Z,100.00
2022-08-17T02:04:15.863Z,100.00
2022-08-17T02:06:52.813Z,100.00
2022-08-17T02:09:29.888Z,100.00
2022-08-17T02:12:37.862Z,100.00
2022-08-17T02:14:50.447Z,100.00
2022-08-17T02:17:18.889Z,100.00
2022-08-17T02:19:47.117Z,100.00
2022-08-17T02:22:15.815Z,100.00
2022-08-17T02:24:59.608Z,100.00
2022-08-17T02:27:30.677Z,100.00
2022-08-17T02:29:59.001Z,100.00
2022-08-17T02:32:28.619Z,100.00
2022-08-17T02:34:58.549Z,100.00
2022-08-17T02:37:28.707Z,100.00
2022-08-17T02:39:58.502Z,100.00
2022-08-17T02:42:39.833Z,100.00
2022-08-17T02:45:13.053Z,100.00
2022-08-17T02:47:42.864Z,100.00
2022-08-17T02:50:14.312Z,100.00
2022-08-17T02:52:44.912Z,100.00
2022-08-17T02:55:32.755Z,100.00
2022-08-17T02:58:01.939Z,100.00
2022-08-17T03:00:36.447Z,100.00
2022-08-17T03:03:06.105Z,100.00
2022-08-17T03:05:37.361Z,100.00
2022-08-17T03:08:07.316Z,100.00
2022-08-17T03:10:42.656Z,100.00
2022-08-17T03:13:14.437Z,100.00
2022-08-17T03:15:45.446Z,100.00
2022-08-17T03:18:18.985Z,100.00
2022-08-17T03:20:59.852Z,100.00
2022-08-17T03:23:29.689Z,100.00
2022-08-17T03:25:59.683Z,100.00
2022-08-17T03:28:28.441Z,100.00
2022-08-17T03:30:56.735Z,100.00
2022-08-17T03:33:25.287Z,100.00
2022-08-17T03:35:53.701Z,100.00
2022-08-17T03:38:22.348Z,100.00
2022-08-17T03:40:56.970Z,100.00
2022-08-17T03:43:33.221Z,100.00
2022-08-17T03:46:28.293Z,100.00
2022-08-17T03:49:25.545Z,100.00
2022-08-17T03:52:16.386Z,100.00
2022-08-17T03:55:04.247Z,100.00
2022-08-17T03:57:32.603Z,100.00
2022-08-17T04:00:00.942Z,100.00
2022-08-17T04:02:32.406Z,100.00
2022-08-17T04:05:00.810Z,100.00
2022-08-17T04:07:31.113Z,100.00
2022-08-17T04:10:00.376Z,100.00
2022-08-17T04:12:31.164Z,100.00
2022-08-17T04:14:59.862Z,100.00
2022-08-17T04:17:29.493Z,100.00
2022-08-17T04:19:58.025Z,100.00
2022-08-17T04:22:30.099Z,100.00
2022-08-17T04:25:10.207Z,100.00
2022-08-17T04:27:38.439Z,100.00
2022-08-17T04:30:07.553Z,100.00
2022-08-17T04:33:04.320Z,100.00
2022-08-17T04:35:41.696Z,100.00
2022-08-17T04:38:13.309Z,100.00
2022-08-17T04:41:01.437Z,100.00
2022-08-17T04:43:32.502Z,100.00
2022-08-17T04:46:04.832Z,100.00
2022-08-17T04:48:42.771Z,100.00
2022-08-17T04:51:15.519Z,100.00
2022-08-17T04:53:51.099Z,100.00
2022-08-17T04:56:26.064Z,100.00
2022-08-17T04:58:58.447Z,100.00
2022-08-17T05:01:29.955Z,100.00
2022-08-17T05:04:32.931Z,100.00
2022-08-17T05:06:52.275Z,100.00
2022-08-17T05:09:20.612Z,100.00
2022-08-17T05:11:48.868Z,100.00
2022-08-17T05:14:17.311Z,100.00
2022-08-17T05:16:48.446Z,100.00
2022-08-17T05:19:16.686Z,100.00
2022-08-17T05:21:45.222Z,100.00
2022-08-17T05:24:38.751Z,100.00
2022-08-17T05:27:06.145Z,100.00
2022-08-17T05:29:35.903Z,100.00
2022-08-17T05:32:38.060Z,100.00
2022-08-17T05:35:03.162Z,100.00
2022-08-17T05:37:31.512Z,100.00
2022-08-17T05:40:00.138Z,100.00
2022-08-17T05:42:28.545Z,100.00
2022-08-17T05:44:59.914Z,100.00
2022-08-17T05:47:30.504Z,100.00
2022-08-17T05:50:01.415Z,100.00
2022-08-17T05:53:21.681Z,100.00
2022-08-17T05:56:29.454Z,100.00
2022-08-17T05:59:18.038Z,100.00
2022-08-17T06:02:06.539Z,100.00
2022-08-17T06:05:12.114Z,100.00
2022-08-17T06:07:47.040Z,100.00
2022-08-17T06:10:37.964Z,100.00
2022-08-17T06:13:28.150Z,100.00
2022-08-17T06:16:04.797Z,100.00
2022-08-17T06:19:10.271Z,100.00
2022-08-17T06:21:43.866Z,100.00
2022-08-17T06:24:34.389Z,100.00
2022-08-17T06:27:12.815Z,100.00
2022-08-17T06:29:56.839Z,100.00
2022-08-17T06:32:25.461Z,100.00
2022-08-17T06:34:53.979Z,100.00
2022-08-17T06:37:22.252Z,100.00
2022-08-17T06:40:28.321Z,100.00
2022-08-17T06:43:19.530Z,99.32
2022-08-17T06:45:55.505Z,98.62
2022-08-17T06:48:38.009Z,97.68
2022-08-17T06:51:36.260Z,96.48
2022-08-17T06:54:15.534Z,95.56
2022-08-17T06:57:02.263Z,95.19
2022-08-17T06:59:56.380Z,94.64
2022-08-17T07:03:01.666Z,92.78
2022-08-17T07:05:48.271Z,89.96
2022-08-17T07:08:35.309Z,91.26
2022-08-17T07:11:31.753Z,90.95
2022-08-17T07:14:16.925Z,90.59
2022-08-17T07:16:50.532Z,89.04
2022-08-17T07:19:22.752Z,88.61
2022-08-17T07:22:30.438Z,88.20
2022-08-17T07:25:20.966Z,85.49
2022-08-17T07:27:53.223Z,86.25
2022-08-17T07:30:31.739Z,83.81
2022-08-17T07:33:24.081Z,83.02
2022-08-17T07:35:53.052Z,82.85
2022-08-17T07:38:25.370Z,82.55
2022-08-17T07:40:58.214Z,82.32
2022-08-17T07:43:29.664Z,81.71
2022-08-17T07:46:34.346Z,82.03
2022-08-17T07:49:08.238Z,79.47
2022-08-17T07:51:43.964Z,78.86
2022-08-17T07:54:15.190Z,79.34
2022-08-17T07:56:47.914Z,79.35
2022-08-17T07:59:24.114Z,78.18
2022-08-17T08:01:56.261Z,78.37
2022-08-17T08:04:59.245Z,78.58
2022-08-17T08:07:24.926Z,76.09
2022-08-17T08:10:00.984Z,76.46
2022-08-17T08:13:05.814Z,75.87
2022-08-17T08:15:53.636Z,73.82
2022-08-17T08:18:54.210Z,74.10
2022-08-17T08:21:50.116Z,72.06
2022-08-17T08:24:45.881Z,74.49
2022-08-17T08:27:23.259Z,72.20
2022-08-17T08:29:52.897Z,72.76
2022-08-17T08:32:43.014Z,70.33
2022-08-17T08:35:26.842Z,71.96
2022-08-17T08:38:13.506Z,69.41
2022-08-17T08:40:50.968Z,68.60
2022-08-17T08:43:28.079Z,67.13
2022-08-17T08:46:11.588Z,68.92
2022-08-17T08:48:57.825Z,68.87
2022-08-17T08:51:35.967Z,69.75
2022-08-17T08:54:26.616Z,69.73
2022-08-17T08:57:34.062Z,69.87
2022-08-17T09:00:15.654Z,69.13
2022-08-17T09:02:46.809Z,68.04
2022-08-17T09:05:30.422Z,64.94
2022-08-17T09:08:17.556Z,66.35
2022-08-17T09:10:53.746Z,67.16
2022-08-17T09:13:46.119Z,67.00
2022-08-17T09:16:30.000Z,65.01
2022-08-17T09:19:19.536Z,66.85
2022-08-17T09:22:01.727Z,67.30
2022-08-17T09:24:43.734Z,65.70
2022-08-17T09:27:20.327Z,66.57
2022-08-17T09:30:02.649Z,66.35
2022-08-17T09:32:41.325Z,65.96
2022-08-17T09:35:23.955Z,67.01
2022-08-17T09:37:52.418Z,66.51
2022-08-17T09:40:27.186Z,66.62
2022-08-17T09:43:13.013Z,66.00
2022-08-17T09:45:52.526Z,64.71
2022-08-17T09:48:30.405Z,62.15
2022-08-17T09:51:09.099Z,61.45
2022-08-17T09:53:39.718Z,61.56
2022-08-17T09:56:42.349Z,61.93
2022-08-17T09:59:38.886Z,61.68
2022-08-17T10:02:40.598Z,58.89
2022-08-17T10:05:56.587Z,61.23
2022-08-17T10:08:37.533Z,60.86
2022-08-17T10:11:19.389Z,60.17
2022-08-17T10:13:59.589Z,58.23
2022-08-17T10:16:52.344Z,56.81
2022-08-17T10:19:32.786Z,57.91
2022-08-17T10:22:35.010Z,56.17
2022-08-17T10:25:42.543Z,55.83
2022-08-17T10:28:25.895Z,56.43
2022-08-17T10:31:33.255Z,55.81
2022-08-17T10:34:12.565Z,56.51
2022-08-17T10:37:06.758Z,56.32
2022-08-17T10:39:52.684Z,57.21
2022-08-17T10:42:33.939Z,55.50
2022-08-17T10:45:07.066Z,56.51
2022-08-17T10:48:07.792Z,56.55
2022-08-17T10:50:42.779Z,57.02
2022-08-17T10:53:30.975Z,58.09
2022-08-17T10:56:14.637Z,59.03
2022-08-17T10:58:54.192Z,60.28
2022-08-17T11:01:58.431Z,60.36
2022-08-17T11:05:02.007Z,58.02
2022-08-17T11:07:55.407Z,57.14
2022-08-17T11:10:39.476Z,57.99
2022-08-17T11:13:31.418Z,56.02
2022-08-17T11:16:22.053Z,53.53
2022-08-17T11:19:12.293Z,55.14
2022-08-17T11:21:55.846Z,54.82
2022-08-17T11:24:43.394Z,55.07
2022-08-17T11:27:34.364Z,49.83
2022-08-17T11:30:36.093Z,50.92
2022-08-17T11:33:30.315Z,53.61
2022-08-17T11:36:16.874Z,51.16
2022-08-17T11:39:03.875Z,51.04
2022-08-17T11:41:49.147Z,47.20
2022-08-17T11:44:43.282Z,47.94
2022-08-17T11:47:42.391Z,51.57
2022-08-17T11:50:39.484Z,50.47
2022-08-17T11:53:39.762Z,47.89
2022-08-17T11:56:26.667Z,48.89
2022-08-17T11:58:55.175Z,49.94
2022-08-17T12:01:23.294Z,43.59
2022-08-17T12:03:56.888Z,44.58
2022-08-17T12:06:31.055Z,46.73
2022-08-17T12:09:19.685Z,44.94
2022-08-17T12:12:13.305Z,46.88
2022-08-17T12:15:09.679Z,47.66
2022-08-17T12:17:39.498Z,48.19
2022-08-17T12:20:22.282Z,48.78
2022-08-17T12:23:21.214Z,48.60
2022-08-17T12:26:11.396Z,47.81
2022-08-17T12:28:46.039Z,50.13
2022-08-17T12:31:28.097Z,50.95
2022-08-17T12:33:57.184Z,50.52
2022-08-17T12:36:28.525Z,51.52
2022-08-17T12:39:14.272Z,52.40
2022-08-17T12:41:53.128Z,52.43
2022-08-17T12:44:25.336Z,52.46
2022-08-17T12:47:21.006Z,52.92
2022-08-17T12:49:53.331Z,52.51
2022-08-17T12:52:33.050Z,52.20
2022-08-17T12:55:21.428Z,52.02
2022-08-17T12:57:55.530Z,50.30
2022-08-17T13:00:47.533Z,50.65
2022-08-17T13:03:21.468Z,52.04
2022-08-17T13:06:09.580Z,51.02
2022-08-17T13:08:44.436Z,50.63
2022-08-17T13:11:16.594Z,50.68
2022-08-17T13:13:55.193Z,49.12
2022-08-17T13:16:31.003Z,49.17
2022-08-17T13:19:13.038Z,49.24
2022-08-17T13:21:48.397Z,47.88
2022-08-17T13:24:20.322Z,47.94
2022-08-17T13:26:54.679Z,47.21
2022-08-17T13:29:37.172Z,48.46
2022-08-17T13:32:27.432Z,46.23
2022-08-17T13:35:14.106Z,45.60
2022-08-17T13:38:04.065Z,47.68
2022-08-17T13:40:43.166Z,47.99
2022-08-17T13:43:12.363Z,47.56
2022-08-17T13:45:50.519Z,45.02
2022-08-17T13:48:27.147Z,45.03
2022-08-17T13:50:55.348Z,45.69
2022-08-17T13:53:50.719Z,46.67
2022-08-17T13:56:31.756Z,46.58
2022-08-17T13:59:54.867Z,48.81
2022-08-17T14:02:25.988Z,47.27
2022-08-17T14:04:58.510Z,48.14
2022-08-17T14:07:31.634Z,49.42
2022-08-17T14:10:06.094Z,49.95
2022-08-17T14:12:36.107Z,51.95
2022-08-17T14:15:05.004Z,52.11
2022-08-17T14:17:38.118Z,52.30
2022-08-17T14:20:09.622Z,52.70
2022-08-17T14:22:42.870Z,53.99
2022-08-17T14:25:14.117Z,54.77
2022-08-17T14:27:52.765Z,54.90
2022-08-17T14:30:26.920Z,55.49
2022-08-17T14:32:59.093Z,56.54
2022-08-17T14:35:29.048Z,57.91
2022-08-17T14:37:57.743Z,57.66
2022-08-17T14:40:26.165Z,57.97
2022-08-17T14:42:56.638Z,57.86
2022-08-17T14:45:31.608Z,57.55
2022-08-17T14:48:04.651Z,57.35
2022-08-17T14:50:35.802Z,57.85
2022-08-17T14:53:07.102Z,58.15
2022-08-17T14:55:39.902Z,58.84
2022-08-17T14:58:09.401Z,58.81
2022-08-17T15:00:41.057Z,58.49
2022-08-17T15:03:11.707Z,58.82
2022-08-17T15:05:40.485Z,57.65
2022-08-17T15:08:08.861Z,57.46
2022-08-17T15:10:37.800Z,57.63
2022-08-17T15:13:17.416Z,58.06
2022-08-17T15:15:46.297Z,57.62
2022-08-17T15:18:14.990Z,58.41
2022-08-17T15:20:44.558Z,58.53
2022-08-17T15:23:15.030Z,58.88
2022-08-17T15:25:44.004Z,58.96
2022-08-17T15:28:13.498Z,59.13
2022-08-17T15:30:44.842Z,59.04
2022-08-17T15:33:18.345Z,58.61
2022-08-17T15:35:50.561Z,58.97
2022-08-17T15:38:19.785Z,59.21
2022-08-17T15:40:50.043Z,59.28
2022-08-17T15:43:27.099Z,59.93
2022-08-17T15:46:12.523Z,60.25
2022-08-17T15:48:43.031Z,60.86
2022-08-17T15:51:27.022Z,61.05
2022-08-17T15:53:58.812Z,60.88
2022-08-17T15:56:28.864Z,60.83
2022-08-17T15:58:57.755Z,61.63
2022-08-17T16:03:12.965Z,61.85
2022-08-17T16:04:26.797Z,61.25
2022-08-17T16:06:59.776Z,61.01
2022-08-17T16:09:28.668Z,60.72
2022-08-17T16:11:57.056Z,61.06
2022-08-17T16:14:34.234Z,61.65
2022-08-17T16:17:05.054Z,61.73
2022-08-17T16:19:53.349Z,62.48
2022-08-17T16:22:37.678Z,62.61
2022-08-17T16:25:17.678Z,62.60
2022-08-17T16:27:48.217Z,62.67
2022-08-17T16:30:18.184Z,63.11
2022-08-17T16:32:47.945Z,63.70
2022-08-17T16:35:17.119Z,63.28
2022-08-17T16:37:45.835Z,62.69
2022-08-17T16:40:18.274Z,62.39
2022-08-17T16:42:51.516Z,62.70
2022-08-17T16:45:23.567Z,62.64
2022-08-17T16:47:52.970Z,63.00
2022-08-17T16:50:23.533Z,63.42
2022-08-17T16:52:52.057Z,63.81
2022-08-17T16:55:22.707Z,64.79
2022-08-17T16:57:51.118Z,65.13
2022-08-17T17:00:21.175Z,65.62
2022-08-17T17:02:49.875Z,66.23
2022-08-17T17:05:51.319Z,66.84
2022-08-17T17:08:30.580Z,67.86
2022-08-17T17:11:09.107Z,68.74
2022-08-17T17:13:50.031Z,69.26
2022-08-17T17:16:24.155Z,69.80
2022-08-17T17:19:10.908Z,70.62
2022-08-17T17:21:51.959Z,71.18
2022-08-17T17:24:47.039Z,71.66
2022-08-17T17:27:37.260Z,71.75
2022-08-17T17:30:24.475Z,72.08
2022-08-17T17:33:06.380Z,72.53
2022-08-17T17:35:45.257Z,72.90
2022-08-17T17:38:23.610Z,73.31
2022-08-17T17:41:04.670Z,73.17
2022-08-17T17:43:41.079Z,73.48
2022-08-17T17:46:27.018Z,74.04
2022-08-17T17:49:00.513Z,74.50
2022-08-17T17:52:14.562Z,74.67
2022-08-17T17:55:04.878Z,75.26
2022-08-17T17:57:42.193Z,75.92
2022-08-17T18:00:18.747Z,76.35
2022-08-17T18:03:05.030Z,76.65
2022-08-17T18:05:48.961Z,76.89
2022-08-17T18:08:34.691Z,77.20
2022-08-17T18:11:44.684Z,77.56
2022-08-17T18:14:24.960Z,77.89
2022-08-17T18:16:57.238Z,78.20
2022-08-17T18:19:28.678Z,78.67
2022-08-17T18:22:18.944Z,79.10
2022-08-17T18:24:56.039Z,79.48
2022-08-17T18:27:36.950Z,79.84
2022-08-17T18:30:14.259Z,80.28
2022-08-17T18:32:46.616Z,80.72
2022-08-17T18:35:14.845Z,81.11
2022-08-17T18:37:55.821Z,81.67
2022-08-17T18:40:28.746Z,82.21
2022-08-17T18:42:59.058Z,82.65
2022-08-17T18:45:35.972Z,82.98
2022-08-17T18:48:06.423Z,83.30
2022-08-17T18:50:41.541Z,83.67
2022-08-17T18:53:40.868Z,84.14
2022-08-17T18:56:31.379Z,84.68
2022-08-17T18:59:04.161Z,85.07
2022-08-17T19:02:11.810Z,85.53
2022-08-17T19:05:09.252Z,85.94
2022-08-17T19:07:40.598Z,86.30
2022-08-17T19:10:17.866Z,86.78
2022-08-17T19:12:50.097Z,87.00
2022-08-17T19:15:34.881Z,87.29
2022-08-17T19:18:15.566Z,87.74
2022-08-17T19:21:01.862Z,87.96
2022-08-17T19:23:36.014Z,88.22
2022-08-17T19:26:50.987Z,88.43
2022-08-17T19:29:25.775Z,88.89
2022-08-17T19:31:56.292Z,89.21
2022-08-17T19:34:30.316Z,89.62
2022-08-17T19:37:20.898Z,89.80
2022-08-17T19:39:49.243Z,90.09
2022-08-17T19:42:33.114Z,90.20
2022-08-17T19:45:04.467Z,90.52
2022-08-17T19:48:14.185Z,90.83
2022-08-17T19:51:15.701Z,90.96
2022-08-17T19:54:06.975Z,91.34
2022-08-17T19:56:41.715Z,91.78
2022-08-17T19:59:21.967Z,91.95
2022-08-17T20:02:03.143Z,92.37
2022-08-17T20:04:41.903Z,92.59
2022-08-17T20:07:18.059Z,92.82
2022-08-17T20:10:18.934Z,92.91
2022-08-17T20:12:52.196Z,92.95
2022-08-17T20:15:30.955Z,93.20
2022-08-17T20:18:04.296Z,93.44
2022-08-17T20:20:46.999Z,93.44
2022-08-17T20:23:21.368Z,93.73
2022-08-17T20:26:03.688Z,93.99
2022-08-17T20:28:35.316Z,94.11
2022-08-17T20:31:40.825Z,94.29
2022-08-17T20:34:34.855Z,94.32
2022-08-17T20:37:15.004Z,94.61
2022-08-17T20:40:08.114Z,94.65
2022-08-17T20:42:37.630Z,95.13
2022-08-17T20:45:21.174Z,95.30
2022-08-17T20:48:21.615Z,95.54
2022-08-17T20:50:52.862Z,96.12
2022-08-17T20:53:49.302Z,96.29
2022-08-17T20:56:46.658Z,96.08
2022-08-17T20:59:20.730Z,96.15
2022-08-17T21:02:23.193Z,96.36
2022-08-17T21:04:52.499Z,96.68
2022-08-17T21:07:42.849Z,96.77
2022-08-17T21:10:16.951Z,97.18
2022-08-17T21:12:51.562Z,97.20
2022-08-17T21:15:35.786Z,97.50
2022-08-17T21:18:13.394Z,97.58
2022-08-17T21:21:24.246Z,98.27
2022-08-17T21:24:26.450Z,98.54
2022-08-17T21:27:21.218Z,98.75
2022-08-17T21:30:10.233Z,98.96
2022-08-17T21:32:43.384Z,99.02
2022-08-17T21:35:12.375Z,99.27
2022-08-17T21:37:40.555Z,99.13
2022-08-17T21:40:18.476Z,99.26
2022-08-17T21:42:50.642Z,99.37
2022-08-17T21:45:37.824Z,99.44
2022-08-17T21:48:19.752Z,99.58
2022-08-17T21:51:10.631Z,99.83
2022-08-17T21:53:46.478Z,99.73
2022-08-17T21:56:25.723Z,99.97
2022-08-17T21:58:59.984Z,99.99
2022-08-17T22:01:41.275Z,100.00
2022-08-17T22:04:12.652Z,100.00
2022-08-17T22:06:57.308Z,100.00
2022-08-17T22:09:50.991Z,100.00
2022-08-17T22:12:24.276Z,100.00
2022-08-17T22:15:06.199Z,100.00
2022-08-17T22:17:46.460Z,100.00
2022-08-17T22:20:19.044Z,100.00
2022-08-17T22:23:08.888Z,100.00
2022-08-17T22:25:40.880Z,100.00
2022-08-17T22:28:12.070Z,100.00
2022-08-17T22:31:02.110Z,100.00
2022-08-17T22:33:33.578Z,100.00
2022-08-17T22:36:12.770Z,100.00
2022-08-17T22:38:43.599Z,100.00
2022-08-17T22:41:22.216Z,100.00
2022-08-17T22:43:51.994Z,100.00
2022-08-17T22:46:23.997Z,100.00
2022-08-17T22:48:56.084Z,100.00
2022-08-17T22:51:29.366Z,100.00
2022-08-17T22:54:20.422Z,100.00
2022-08-17T22:57:22.879Z,100.00
2022-08-17T22:59:54.938Z,100.00
2022-08-17T23:02:34.939Z,100.00
2022-08-17T23:05:10.414Z,100.00
2022-08-17T23:07:40.635Z,100.00
2022-08-17T23:10:12.830Z,100.00
2022-08-17T23:12:41.546Z,100.00
2022-08-17T23:15:14.512Z,100.00
2022-08-17T23:17:45.388Z,100.00
2022-08-17T23:20:16.123Z,100.00
2022-08-17T23:22:52.438Z,100.00
2022-08-17T23:25:30.263Z,100.00
2022-08-17T23:28:01.826Z,100.00
2022-08-17T23:30:32.973Z,100.00
2022-08-17T23:33:05.880Z,100.00
2022-08-17T23:35:39.996Z,100.00
2022-08-17T23:38:13.832Z,100.00
2022-08-17T23:40:42.174Z,100.00
2022-08-17T23:43:24.281Z,100.00
2022-08-17T23:45:55.553Z,100.00
2022-08-17T23:48:35.896Z,100.00
2022-08-17T23:51:12.601Z,100.00
2022-08-17T23:53:47.680Z,100.00
2022-08-17T23:56:17.000Z,100.00
2022-08-17T23:58:45.307Z,100.00
